sensor_id;sensor_type;location;lat;lon;timestamp;pressure;altitude;pressure_sealevel;temperature;humidity
38253;BME280;24785;52.372;20.672;2023-05-08T00:02:58;102089.72;;;-0.60;100.00
38253;BME280;24785;52.372;20.672;2023-05-08T00:12:59;102081.63;;;-0.75;100.00
38253;BME280;24785;52.372;20.672;2023-05-08T00:23:00;102079.34;;;-0.70;100.00
38253;BME280;24785;52.372;20.672;2023-05-08T00:33:01;102097.94;;;-0.63;100.00
38253;BME280;24785;52.372;20.672;2023-05-08T00:43:02;102093.97;;;-0.75;100.00
38253;BME280;24785;52.372;20.672;2023-05-08T00:53:03;102107.16;;;-1.01;100.00
38253;BME280;24785;52.372;20.672;2023-05-08T01:03:04;102109.59;;;-1.08;100.00
38253;BME280;24785;52.372;20.672;2023-05-08T01:33:46;102137.28;;;-0.96;100.00
38253;BME280;24785;52.372;20.672;2023-05-08T01:43:54;102136.03;;;-1.09;100.00
38253;BME280;24785;52.372;20.672;2023-05-08T01:54:04;102145.91;;;-1.11;100.00
38253;BME280;24785;52.372;20.672;2023-05-08T02:04:08;102151.66;;;-1.34;100.00
38253;BME280;24785;52.372;20.672;2023-05-08T02:14:12;102154.47;;;-1.35;100.00
38253;BME280;24785;52.372;20.672;2023-05-08T02:24:14;102155.94;;;-1.33;100.00
38253;BME280;24785;52.372;20.672;2023-05-08T02:34:16;102153.75;;;-1.19;100.00
38253;BME280;24785;52.372;20.672;2023-05-08T02:44:18;102162.41;;;-1.45;100.00
38253;BME280;24785;52.372;20.672;2023-05-08T02:54:38;102169.03;;;-1.41;100.00
38253;BME280;24785;52.372;20.672;2023-05-08T03:04:49;102169.41;;;-1.36;100.00
38253;BME280;24785;52.372;20.672;2023-05-08T03:15:07;102173.28;;;-1.22;100.00
38253;BME280;24785;52.372;20.672;2023-05-08T03:25:11;102170.53;;;-0.94;100.00
38253;BME280;24785;52.372;20.672;2023-05-08T03:35:14;102186.66;;;-0.64;100.00
38253;BME280;24785;52.372;20.672;2023-05-08T03:45:16;102191.09;;;0.93;100.00
38253;BME280;24785;52.372;20.672;2023-05-08T03:55:17;102198.09;;;3.03;100.00
38253;BME280;24785;52.372;20.672;2023-05-08T04:05:32;102213.91;;;4.57;95.84
38253;BME280;24785;52.372;20.672;2023-05-08T04:15:43;102220.28;;;6.16;83.71
38253;BME280;24785;52.372;20.672;2023-05-08T04:25:46;102219.16;;;6.91;77.05
38253;BME280;24785;52.372;20.672;2023-05-08T04:35:48;102227.50;;;8.57;70.97
38253;BME280;24785;52.372;20.672;2023-05-08T04:45:49;102243.38;;;9.26;70.47
38253;BME280;24785;52.372;20.672;2023-05-08T04:55:51;102248.09;;;9.67;69.72
38253;BME280;24785;52.372;20.672;2023-05-08T05:05:59;102253.41;;;9.31;74.87
38253;BME280;24785;52.372;20.672;2023-05-08T05:16:00;102274.38;;;8.52;80.58
38253;BME280;24785;52.372;20.672;2023-05-08T05:26:01;102280.03;;;8.25;88.07
38253;BME280;24785;52.372;20.672;2023-05-08T05:36:02;102268.84;;;8.79;81.82
38253;BME280;24785;52.372;20.672;2023-05-08T05:46:07;102267.09;;;9.41;80.44
38253;BME280;24785;52.372;20.672;2023-05-08T05:56:08;102283.94;;;9.23;80.21
38253;BME280;24785;52.372;20.672;2023-05-08T06:06:09;102281.16;;;9.11;81.37
38253;BME280;24785;52.372;20.672;2023-05-08T06:16:10;102276.94;;;8.97;77.77
38253;BME280;24785;52.372;20.672;2023-05-08T06:26:11;102288.88;;;8.70;78.93
38253;BME280;24785;52.372;20.672;2023-05-08T06:36:12;102275.69;;;9.25;75.51
38253;BME280;24785;52.372;20.672;2023-05-08T06:46:13;102268.78;;;9.60;74.88
38253;BME280;24785;52.372;20.672;2023-05-08T06:56:14;102262.31;;;9.50;69.55
38253;BME280;24785;52.372;20.672;2023-05-08T07:06:15;102259.25;;;9.83;65.19
38253;BME280;24785;52.372;20.672;2023-05-08T07:16:15;102267.44;;;9.69;64.78
38253;BME280;24785;52.372;20.672;2023-05-08T07:26:16;102269.63;;;9.97;63.55
38253;BME280;24785;52.372;20.672;2023-05-08T07:36:18;102275.53;;;9.81;60.49
38253;BME280;24785;52.372;20.672;2023-05-08T07:46:19;102261.50;;;10.52;60.92
38253;BME280;24785;52.372;20.672;2023-05-08T07:56:20;102264.50;;;10.86;58.59
38253;BME280;24785;52.372;20.672;2023-05-08T08:06:22;102255.09;;;10.53;58.39
38253;BME280;24785;52.372;20.672;2023-05-08T08:16:23;102242.72;;;11.06;58.74
38253;BME280;24785;52.372;20.672;2023-05-08T08:26:24;102238.84;;;11.72;58.15
38253;BME280;24785;52.372;20.672;2023-05-08T08:36:25;102230.53;;;11.73;55.97
38253;BME280;24785;52.372;20.672;2023-05-08T08:46:26;102217.63;;;11.58;54.04
38253;BME280;24785;52.372;20.672;2023-05-08T08:56:29;102228.41;;;12.27;58.03
38253;BME280;24785;52.372;20.672;2023-05-08T09:06:34;102223.22;;;12.99;55.37
38253;BME280;24785;52.372;20.672;2023-05-08T09:16:36;102216.25;;;12.70;54.51
38253;BME280;24785;52.372;20.672;2023-05-08T09:26:38;102195.50;;;13.76;48.62
38253;BME280;24785;52.372;20.672;2023-05-08T09:36:39;102190.47;;;13.24;46.12
38253;BME280;24785;52.372;20.672;2023-05-08T09:46:41;102186.72;;;13.42;46.23
38253;BME280;24785;52.372;20.672;2023-05-08T09:56:42;102188.88;;;12.56;46.60
38253;BME280;24785;52.372;20.672;2023-05-08T10:06:43;102164.34;;;13.41;47.47
38253;BME280;24785;52.372;20.672;2023-05-08T10:16:56;102168.66;;;13.64;46.38
38253;BME280;24785;52.372;20.672;2023-05-08T10:27:34;102161.53;;;14.56;44.88
38253;BME280;24785;52.372;20.672;2023-05-08T10:37:38;102151.94;;;13.84;42.63
38253;BME280;24785;52.372;20.672;2023-05-08T10:47:53;102148.25;;;13.08;43.03
38253;BME280;24785;52.372;20.672;2023-05-08T11:08:18;102137.03;;;13.16;45.31
38253;BME280;24785;52.372;20.672;2023-05-08T11:18:21;102124.38;;;13.77;41.69
38253;BME280;24785;52.372;20.672;2023-05-08T11:28:22;102116.34;;;13.82;43.29
38253;BME280;24785;52.372;20.672;2023-05-08T11:38:31;102106.09;;;14.70;43.99
38253;BME280;24785;52.372;20.672;2023-05-08T11:48:33;102111.13;;;14.61;42.14
38253;BME280;24785;52.372;20.672;2023-05-08T11:58:34;102086.97;;;14.76;40.87
38253;BME280;24785;52.372;20.672;2023-05-08T12:08:37;102103.06;;;14.02;42.39
38253;BME280;24785;52.372;20.672;2023-05-08T12:18:38;102089.00;;;14.59;43.34
38253;BME280;24785;52.372;20.672;2023-05-08T12:28:42;102086.50;;;14.90;41.20
38253;BME280;24785;52.372;20.672;2023-05-08T12:38:43;102064.81;;;14.74;38.08
38253;BME280;24785;52.372;20.672;2023-05-08T12:48:44;102067.78;;;14.41;40.63
38253;BME280;24785;52.372;20.672;2023-05-08T12:58:45;102043.59;;;13.82;38.24
38253;BME280;24785;52.372;20.672;2023-05-08T13:08:52;102047.25;;;14.35;40.03
38253;BME280;24785;52.372;20.672;2023-05-08T13:18:54;102037.28;;;14.72;39.02
38253;BME280;24785;52.372;20.672;2023-05-08T13:28:55;102029.69;;;15.27;37.70
38253;BME280;24785;52.372;20.672;2023-05-08T13:38:56;102013.66;;;15.05;38.52
38253;BME280;24785;52.372;20.672;2023-05-08T13:48:57;102005.13;;;15.38;40.47
38253;BME280;24785;52.372;20.672;2023-05-08T13:58:57;102008.28;;;15.10;38.15
38253;BME280;24785;52.372;20.672;2023-05-08T14:08:58;101993.94;;;15.04;37.56
38253;BME280;24785;52.372;20.672;2023-05-08T14:18:59;101982.41;;;15.24;34.69
38253;BME280;24785;52.372;20.672;2023-05-08T14:29:00;101987.22;;;15.07;35.90
38253;BME280;24785;52.372;20.672;2023-05-08T14:39:02;101982.94;;;15.16;38.74
38253;BME280;24785;52.372;20.672;2023-05-08T14:49:03;101984.88;;;15.31;36.94
38253;BME280;24785;52.372;20.672;2023-05-08T14:59:04;101978.94;;;15.39;36.23
38253;BME280;24785;52.372;20.672;2023-05-08T15:09:06;101973.34;;;15.61;34.61
38253;BME280;24785;52.372;20.672;2023-05-08T15:19:07;101982.25;;;15.61;35.86
38253;BME280;24785;52.372;20.672;2023-05-08T15:29:09;101968.09;;;15.19;35.27
38253;BME280;24785;52.372;20.672;2023-05-08T15:39:10;101957.25;;;18.94;31.17
38253;BME280;24785;52.372;20.672;2023-05-08T15:49:10;101939.59;;;21.76;27.72
38253;BME280;24785;52.372;20.672;2023-05-08T15:59:12;101938.59;;;20.36;28.97
38253;BME280;24785;52.372;20.672;2023-05-08T16:09:12;101942.69;;;17.45;31.59
38253;BME280;24785;52.372;20.672;2023-05-08T16:19:13;101951.91;;;15.19;35.71
38253;BME280;24785;52.372;20.672;2023-05-08T16:29:15;101956.78;;;14.17;37.47
38253;BME280;24785;52.372;20.672;2023-05-08T16:39:16;101968.59;;;13.42;40.09
38253;BME280;24785;52.372;20.672;2023-05-08T16:49:17;101977.97;;;12.90;45.65
38253;BME280;24785;52.372;20.672;2023-05-08T16:59:17;101986.75;;;12.25;51.58
38253;BME280;24785;52.372;20.672;2023-05-08T17:09:18;101989.38;;;12.20;47.59
38253;BME280;24785;52.372;20.672;2023-05-08T17:19:20;101993.75;;;12.26;50.61
38253;BME280;24785;52.372;20.672;2023-05-08T17:29:22;101968.44;;;12.22;46.09
38253;BME280;24785;52.372;20.672;2023-05-08T17:39:23;101984.59;;;11.89;47.54
38253;BME280;24785;52.372;20.672;2023-05-08T17:49:24;101993.94;;;11.41;49.66
38253;BME280;24785;52.372;20.672;2023-05-08T17:59:25;102016.19;;;10.61;55.14
38253;BME280;24785;52.372;20.672;2023-05-08T18:09:27;102029.41;;;9.56;58.35
38253;BME280;24785;52.372;20.672;2023-05-08T18:19:27;102048.44;;;9.00;61.08
38253;BME280;24785;52.372;20.672;2023-05-08T18:29:28;102051.50;;;8.35;64.97
38253;BME280;24785;52.372;20.672;2023-05-08T18:39:30;102078.63;;;7.76;69.66
38253;BME280;24785;52.372;20.672;2023-05-08T18:49:31;102084.78;;;7.32;75.35
38253;BME280;24785;52.372;20.672;2023-05-08T18:59:31;102101.31;;;6.76;81.64
38253;BME280;24785;52.372;20.672;2023-05-08T19:09:32;102109.53;;;6.41;85.48
38253;BME280;24785;52.372;20.672;2023-05-08T19:19:33;102106.19;;;5.99;86.31
38253;BME280;24785;52.372;20.672;2023-05-08T19:29:34;102111.38;;;5.60;88.36
38253;BME280;24785;52.372;20.672;2023-05-08T19:39:35;102106.00;;;5.47;100.00
38253;BME280;24785;52.372;20.672;2023-05-08T19:49:36;102116.03;;;4.76;100.00
38253;BME280;24785;52.372;20.672;2023-05-08T19:59:37;102105.47;;;4.61;100.00
38253;BME280;24785;52.372;20.672;2023-05-08T20:09:38;102104.38;;;4.49;100.00
38253;BME280;24785;52.372;20.672;2023-05-08T20:19:39;102103.75;;;4.04;100.00
38253;BME280;24785;52.372;20.672;2023-05-08T20:29:39;102103.44;;;3.92;100.00
38253;BME280;24785;52.372;20.672;2023-05-08T20:39:41;102102.25;;;3.59;100.00
38253;BME280;24785;52.372;20.672;2023-05-08T20:49:42;102100.91;;;3.48;100.00
38253;BME280;24785;52.372;20.672;2023-05-08T20:59:43;102102.22;;;3.08;100.00
38253;BME280;24785;52.372;20.672;2023-05-08T21:09:46;102093.63;;;2.91;100.00
38253;BME280;24785;52.372;20.672;2023-05-08T21:19:47;102094.69;;;2.67;100.00
38253;BME280;24785;52.372;20.672;2023-05-08T21:29:48;102086.81;;;2.44;100.00
38253;BME280;24785;52.372;20.672;2023-05-08T21:39:49;102094.56;;;2.23;100.00
38253;BME280;24785;52.372;20.672;2023-05-08T21:49:50;102097.56;;;2.20;100.00
38253;BME280;24785;52.372;20.672;2023-05-08T21:59:51;102082.25;;;1.93;100.00
38253;BME280;24785;52.372;20.672;2023-05-08T22:09:52;102093.50;;;1.86;100.00
38253;BME280;24785;52.372;20.672;2023-05-08T22:19:53;102092.97;;;1.68;100.00
38253;BME280;24785;52.372;20.672;2023-05-08T22:29:53;102085.75;;;1.62;100.00
38253;BME280;24785;52.372;20.672;2023-05-08T22:39:54;102080.69;;;1.52;100.00
38253;BME280;24785;52.372;20.672;2023-05-08T22:49:55;102085.34;;;1.42;100.00
38253;BME280;24785;52.372;20.672;2023-05-08T22:59:57;102085.06;;;1.29;100.00
38253;BME280;24785;52.372;20.672;2023-05-08T23:09:58;102079.59;;;1.00;100.00
38253;BME280;24785;52.372;20.672;2023-05-08T23:19:59;102080.91;;;0.96;100.00
38253;BME280;24785;52.372;20.672;2023-05-08T23:29:59;102084.38;;;0.88;100.00
38253;BME280;24785;52.372;20.672;2023-05-08T23:40:01;102081.41;;;0.83;100.00
38253;BME280;24785;52.372;20.672;2023-05-08T23:50:02;102084.91;;;0.75;100.00
